Time;durP1;ratioP1;P1;durP2;ratioP2;P2;SDS_P1;SDS_P2;PMS_P1;PMS_P2;Temp;Humidity;BMP_temperature;BMP_pressure;BME280_temperature;BME280_humidity;BME280_pressure;Samples;Min_cycle;Max_cycle;Signal;HPM_P1;HPM_P2
2021/04/10 00:01:50;;;;;;;15.40;14.57;;;23.60;73.10;;;;;;6134114;23;20459;-43
2021/04/10 00:04:17;;;;;;;17.33;16.43;;;23.60;73.10;;;;;;6133595;23;20631;-43
2021/04/10 00:06:45;;;;;;;17.03;16.13;;;23.60;73.90;;;;;;6134995;23;20663;-44
2021/04/10 00:09:12;;;;;;;15.63;14.80;;;23.60;73.30;;;;;;6133855;23;20522;-44
2021/04/10 00:11:38;;;;;;;16.50;15.70;;;23.60;73.30;;;;;;6134166;23;21176;-44
2021/04/10 00:14:05;;;;;;;16.43;15.60;;;23.60;73.30;;;;;;6134050;23;20454;-45
2021/04/10 00:16:33;;;;;;;16.60;15.80;;;23.60;73.40;;;;;;6133561;23;20452;-44
2021/04/10 00:19:00;;;;;;;17.10;16.20;;;23.60;73.50;;;;;;6133498;23;20450;-43
2021/04/10 00:21:27;;;;;;;16.07;15.30;;;23.60;73.50;;;;;;6133477;23;20449;-45
2021/04/10 00:23:54;;;;;;;15.87;15.17;;;23.60;73.50;;;;;;6132143;23;20779;-44
2021/04/10 00:26:22;;;;;;;16.60;15.90;;;23.60;73.60;;;;;;6135946;23;20458;-45
2021/04/10 00:28:48;;;;;;;16.23;15.53;;;23.60;73.60;;;;;;6133547;23;20451;-44
2021/04/10 00:31:15;;;;;;;15.60;14.80;;;23.60;73.70;;;;;;6131682;23;20450;-45
2021/04/10 00:33:42;;;;;;;16.07;15.30;;;23.60;73.80;;;;;;6134575;23;20472;-45
2021/04/10 00:36:10;;;;;;;16.10;15.40;;;23.60;73.70;;;;;;6134782;23;20446;-45
2021/04/10 00:38:39;;;;;;;16.60;15.60;;;23.60;73.80;;;;;;6133917;23;20456;-44
2021/04/10 00:41:07;;;;;;;15.33;14.73;;;23.60;73.80;;;;;;6132143;23;20505;-44
2021/04/10 00:43:34;;;;;;;15.00;14.40;;;23.60;73.90;;;;;;6133467;23;20457;-44
2021/04/10 00:46:01;;;;;;;16.00;15.30;;;23.60;73.90;;;;;;6134943;23;20545;-44
2021/04/10 00:48:28;;;;;;;15.73;15.00;;;23.60;74.70;;;;;;6132915;23;20455;-43
2021/04/10 00:50:55;;;;;;;16.00;15.30;;;23.60;74.00;;;;;;6133745;23;20837;-43
2021/04/10 00:53:24;;;;;;;16.00;15.20;;;23.60;74.00;;;;;;6132698;23;20453;-44
2021/04/10 00:55:54;;;;;;;15.90;15.10;;;23.60;74.00;;;;;;6133665;23;20787;-45
2021/04/10 00:58:21;;;;;;;15.63;14.93;;;23.60;74.00;;;;;;6132808;23;20466;-44
2021/04/10 01:00:47;;;;;;;15.43;14.73;;;23.60;74.10;;;;;;6134369;23;20462;-44
2021/04/10 01:03:14;;;;;;;16.20;15.40;;;23.60;74.10;;;;;;6133981;23;20592;-44
2021/04/10 01:05:41;;;;;;;15.73;15.03;;;23.60;74.20;;;;;;6133704;23;20657;-43
2021/04/10 01:08:08;;;;;;;15.70;14.93;;;23.60;74.20;;;;;;6133651;23;20455;-45
2021/04/10 01:10:36;;;;;;;16.23;15.43;;;23.60;74.30;;;;;;6132200;23;20526;-43
2021/04/10 01:13:17;;;;;;;15.97;15.27;;;23.60;74.30;;;;;;6132789;23;21040;-45
2021/04/10 01:15:49;;;;;;;16.40;15.60;;;23.60;74.30;;;;;;6131229;23;20443;-45
2021/04/10 01:18:21;;;;;;;16.27;15.50;;;23.60;74.30;;;;;;6131431;23;20447;-44
2021/04/10 01:21:03;;;;;;;15.20;14.60;;;23.60;74.40;;;;;;6132863;23;20485;-45
2021/04/10 01:24:18;;;;;;;16.00;15.30;;;23.60;74.40;;;;;;6133529;23;20541;-44
2021/04/10 01:27:04;;;;;;;16.90;16.10;;;23.60;74.50;;;;;;6134443;23;20460;-44
2021/04/10 01:29:37;;;;;;;15.97;15.27;;;23.60;74.50;;;;;;6133977;23;20860;-45
2021/04/10 01:32:04;;;;;;;16.80;16.10;;;23.60;74.50;;;;;;6132655;23;20827;-45
2021/04/10 01:34:34;;;;;;;15.90;15.20;;;23.60;74.50;;;;;;6133279;23;20438;-45
2021/04/10 01:37:06;;;;;;;17.17;16.23;;;23.60;74.60;;;;;;6131433;23;20561;-43
2021/04/10 01:39:36;;;;;;;16.20;15.50;;;23.60;74.60;;;;;;6134371;23;20456;-44
2021/04/10 01:42:06;;;;;;;15.83;15.13;;;23.60;74.60;;;;;;6132776;23;20455;-44
2021/04/10 01:44:34;;;;;;;15.83;15.13;;;23.60;74.70;;;;;;6131768;23;20439;-45
2021/04/10 01:47:03;;;;;;;16.00;15.27;;;23.60;74.80;;;;;;6133940;23;20708;-43
2021/04/10 01:49:31;;;;;;;15.40;14.70;;;23.60;75.40;;;;;;6131731;23;20458;-45
2021/04/10 01:52:02;;;;;;;15.90;15.10;;;23.60;74.80;;;;;;6132529;23;20438;-43
2021/04/10 01:54:31;;;;;;;15.47;14.87;;;23.60;74.80;;;;;;6131388;23;20486;-43
2021/04/10 01:57:00;;;;;;;15.50;14.70;;;23.60;74.80;;;;;;6131806;23;20804;-45
2021/04/10 01:59:28;;;;;;;15.53;14.90;;;23.60;74.80;;;;;;6132833;23;20457;-44
2021/04/10 02:01:59;;;;;;;16.83;15.93;;;23.60;74.80;;;;;;6130981;23;20810;-45
2021/04/10 02:04:39;;;;;;;15.20;14.60;;;23.60;74.80;;;;;;6132060;23;20489;-44
2021/04/10 02:07:08;;;;;;;16.30;15.53;;;23.60;74.80;;;;;;6132851;23;20446;-46
2021/04/10 02:09:41;;;;;;;15.07;14.37;;;23.60;74.90;;;;;;6131553;23;20482;-44
2021/04/10 02:12:21;;;;;;;15.87;15.17;;;23.60;74.90;;;;;;6130351;23;20447;-43
2021/04/10 02:15:00;;;;;;;16.40;15.50;;;23.60;74.90;;;;;;6133369;23;20451;-44
2021/04/10 02:17:28;;;;;;;15.30;14.70;;;23.60;75.00;;;;;;6130351;23;20487;-43
2021/04/10 02:20:00;;;;;;;16.43;15.60;;;23.60;75.00;;;;;;6103563;23;20637;-43
2021/04/10 02:22:33;;;;;;;15.53;14.83;;;23.60;75.10;;;;;;6127137;23;20827;-45
2021/04/10 02:25:01;;;;;;;15.80;15.10;;;23.60;75.10;;;;;;6132225;23;20686;-44
2021/04/10 02:27:28;;;;;;;15.50;14.70;;;23.60;75.10;;;;;;6132766;23;20475;-45
2021/04/10 02:30:03;;;;;;;15.40;14.80;;;23.60;75.10;;;;;;6132438;23;20891;-43
2021/04/10 02:32:36;;;;;;;14.97;14.37;;;23.60;75.20;;;;;;6131189;23;20470;-43
2021/04/10 02:35:08;;;;;;;15.30;14.60;;;23.60;75.20;;;;;;6131159;23;20451;-44
2021/04/10 02:37:37;;;;;;;15.90;15.10;;;23.60;75.20;;;;;;6133793;23;20453;-45
2021/04/10 02:40:09;;;;;;;14.60;13.90;;;23.60;75.20;;;;;;6131010;23;20608;-44
2021/04/10 02:42:45;;;;;;;15.50;14.80;;;23.60;75.30;;;;;;6132999;23;20545;-44
2021/04/10 02:45:15;;;;;;;15.93;15.17;;;23.60;75.30;;;;;;6130761;23;20450;-43
2021/04/10 02:47:49;;;;;;;15.13;14.40;;;23.60;75.30;;;;;;6132812;23;20667;-43
2021/04/10 02:50:19;;;;;;;15.43;14.73;;;23.60;75.30;;;;;;6131966;23;20476;-43
2021/04/10 02:52:49;;;;;;;15.90;15.20;;;23.60;75.30;;;;;;6130111;23;20474;-44
2021/04/10 02:55:24;;;;;;;15.37;14.67;;;23.60;75.30;;;;;;6130598;23;20564;-43
2021/04/10 02:57:53;;;;;;;15.40;14.70;;;23.60;75.30;;;;;;6130859;23;20510;-45
2021/04/10 03:00:21;;;;;;;15.83;15.17;;;23.60;75.40;;;;;;6129799;23;20455;-43
2021/04/10 03:02:50;;;;;;;16.00;15.27;;;23.60;75.40;;;;;;6132339;23;20455;-44
2021/04/10 03:05:20;;;;;;;15.60;14.80;;;23.60;75.40;;;;;;6132546;23;20548;-43
2021/04/10 03:07:48;;;;;;;15.20;14.50;;;23.60;75.40;;;;;;6131440;23;20446;-45
2021/04/10 03:10:20;;;;;;;15.70;15.00;;;23.60;75.40;;;;;;6131746;23;20671;-45
2021/04/10 03:12:51;;;;;;;15.10;14.40;;;23.60;75.50;;;;;;6129882;23;20816;-45
2021/04/10 03:15:20;;;;;;;14.80;14.20;;;23.60;75.40;;;;;;6133712;23;20458;-44
2021/04/10 03:17:51;;;;;;;15.47;14.57;;;23.60;75.50;;;;;;6134772;23;20517;-44
2021/04/10 03:20:20;;;;;;;15.43;14.73;;;23.60;75.50;;;;;;6132400;23;20438;-45
2021/04/10 03:22:50;;;;;;;15.17;14.53;;;23.60;75.60;;;;;;6132494;23;20542;-44
2021/04/10 03:25:23;;;;;;;14.60;14.03;;;23.60;75.60;;;;;;6132532;23;20455;-44
2021/04/10 03:27:52;;;;;;;14.67;14.07;;;23.60;75.60;;;;;;6134951;23;20446;-45
2021/04/10 03:30:20;;;;;;;15.13;14.33;;;23.60;75.60;;;;;;6130775;23;20458;-44
2021/04/10 03:32:52;;;;;;;14.43;13.83;;;23.60;75.60;;;;;;6132704;23;20455;-44
2021/04/10 03:35:19;;;;;;;15.00;14.40;;;23.60;75.70;;;;;;6132657;23;20467;-43
2021/04/10 03:37:50;;;;;;;15.77;15.07;;;23.60;75.80;;;;;;6133400;23;20915;-45
2021/04/10 03:40:26;;;;;;;15.27;14.67;;;23.60;75.80;;;;;;6134259;23;20840;-43
2021/04/10 03:42:53;;;;;;;14.80;14.20;;;23.60;75.80;;;;;;6129281;23;20454;-43
2021/04/10 03:45:28;;;;;;;15.90;15.20;;;23.60;75.80;;;;;;6131469;23;20446;-42
2021/04/10 03:48:01;;;;;;;15.80;15.10;;;23.60;75.80;;;;;;6132240;23;20447;-44
2021/04/10 03:50:38;;;;;;;14.77;14.17;;;23.60;75.80;;;;;;6132041;23;20457;-45
2021/04/10 03:53:05;;;;;;;15.87;15.07;;;23.60;75.80;;;;;;6133150;23;20478;-44
2021/04/10 03:55:33;;;;;;;16.37;15.57;;;23.60;75.80;;;;;;6133046;23;20549;-44
2021/04/10 03:58:00;;;;;;;15.63;14.80;;;23.60;75.80;;;;;;6133473;23;20450;-44
2021/04/10 04:00:29;;;;;;;15.37;14.67;;;23.70;75.80;;;;;;6133219;23;20461;-44
2021/04/10 04:03:00;;;;;;;15.57;14.87;;;23.70;75.80;;;;;;6132451;23;20456;-45
2021/04/10 04:05:27;;;;;;;15.13;14.53;;;23.70;75.80;;;;;;6133955;23;20439;-43
2021/04/10 04:07:54;;;;;;;15.63;15.03;;;23.70;75.80;;;;;;6134377;23;20544;-46
2021/04/10 04:10:20;;;;;;;16.07;15.27;;;23.70;75.80;;;;;;6133455;23;20542;-44
2021/04/10 04:12:47;;;;;;;15.43;14.80;;;23.80;75.90;;;;;;6133423;23;20467;-46
2021/04/10 04:15:14;;;;;;;16.30;15.60;;;23.80;75.80;;;;;;6132066;23;20498;-46
2021/04/10 04:17:40;;;;;;;16.17;15.47;;;23.80;75.80;;;;;;6133195;23;20552;-46
2021/04/10 04:20:09;;;;;;;15.20;14.60;;;23.80;75.80;;;;;;6132561;23;20459;-46
2021/04/10 04:22:37;;;;;;;16.07;15.27;;;23.80;75.80;;;;;;6133236;23;20447;-46
2021/04/10 04:25:04;;;;;;;16.13;15.47;;;23.80;75.80;;;;;;6132871;23;20488;-46
2021/04/10 04:27:30;;;;;;;15.40;14.80;;;23.80;75.70;;;;;;6134129;23;20545;-46
2021/04/10 04:29:57;;;;;;;15.90;15.23;;;23.90;75.80;;;;;;6133167;23;20458;-46
2021/04/10 04:32:25;;;;;;;16.20;15.50;;;23.90;75.80;;;;;;6134747;23;20550;-46
2021/04/10 04:34:51;;;;;;;15.47;14.87;;;23.90;75.80;;;;;;6132066;23;20447;-46
2021/04/10 04:37:19;;;;;;;16.03;15.20;;;23.90;75.80;;;;;;6130681;23;20455;-48
2021/04/10 04:39:47;;;;;;;15.60;14.90;;;23.90;75.70;;;;;;6131815;23;20446;-46
2021/04/10 04:42:13;;;;;;;15.60;14.80;;;23.90;75.70;;;;;;6132442;23;20505;-46
2021/04/10 04:44:40;;;;;;;16.10;15.30;;;23.90;75.70;;;;;;6130828;23;20441;-46
2021/04/10 04:47:06;;;;;;;16.40;15.80;;;23.90;75.60;;;;;;6132780;23;20540;-46
2021/04/10 04:49:33;;;;;;;16.10;15.40;;;24.00;75.70;;;;;;6132997;23;20534;-47
2021/04/10 04:52:00;;;;;;;16.47;15.77;;;23.90;75.60;;;;;;6135035;23;20557;-46
2021/04/10 04:54:27;;;;;;;16.90;16.20;;;24.00;75.70;;;;;;6133931;23;20760;-46
2021/04/10 04:56:54;;;;;;;16.40;15.70;;;24.00;75.70;;;;;;6134558;23;20488;-46
2021/04/10 04:59:20;;;;;;;16.60;15.90;;;24.00;75.70;;;;;;6134970;23;21002;-46
2021/04/10 05:01:47;;;;;;;16.40;15.70;;;24.00;75.70;;;;;;6134188;23;20547;-46
2021/04/10 05:04:13;;;;;;;16.00;15.40;;;24.00;75.60;;;;;;6132747;23;21210;-46
2021/04/10 05:06:40;;;;;;;16.20;15.50;;;24.10;75.70;;;;;;6132420;23;20545;-46
2021/04/10 05:09:07;;;;;;;16.20;15.60;;;24.10;75.70;;;;;;6126341;23;20461;-46
2021/04/10 05:11:35;;;;;;;16.87;16.10;;;24.00;75.60;;;;;;6133335;23;20444;-46
2021/04/10 05:14:01;;;;;;;16.73;16.03;;;24.10;75.70;;;;;;6130827;23;20450;-45
2021/04/10 05:16:30;;;;;;;16.50;15.80;;;24.10;75.60;;;;;;6132117;23;20441;-46
2021/04/10 05:18:56;;;;;;;16.53;15.93;;;24.10;75.60;;;;;;6131371;23;20459;-47
2021/04/10 05:21:23;;;;;;;17.13;16.33;;;24.10;75.60;;;;;;6131888;23;20549;-46
2021/04/10 05:23:50;;;;;;;16.30;15.60;;;24.10;75.60;;;;;;6133143;23;20861;-46
2021/04/10 05:26:18;;;;;;;16.60;15.83;;;24.10;75.60;;;;;;6133392;23;20452;-46
2021/04/10 05:28:45;;;;;;;16.97;16.27;;;24.20;75.70;;;;;;6131423;23;21078;-46
2021/04/10 05:31:12;;;;;;;16.87;16.17;;;24.10;75.60;;;;;;6131996;23;20443;-47
2021/04/10 05:33:38;;;;;;;16.57;15.87;;;24.20;75.70;;;;;;6133148;23;20447;-47
2021/04/10 05:36:06;;;;;;;16.10;15.50;;;24.20;75.60;;;;;;6132640;23;20470;-46
2021/04/10 05:38:32;;;;;;;16.30;15.60;;;24.20;75.60;;;;;;6131614;23;20440;-46
2021/04/10 05:41:00;;;;;;;16.97;16.20;;;24.20;75.60;;;;;;6133888;23;20463;-46
2021/04/10 05:43:26;;;;;;;16.57;15.80;;;24.20;75.60;;;;;;6132446;23;21006;-46
2021/04/10 05:45:54;;;;;;;16.80;16.10;;;24.20;75.60;;;;;;6130782;23;20867;-46
2021/04/10 05:48:21;;;;;;;16.80;16.10;;;24.20;75.60;;;;;;6133419;23;20707;-46
2021/04/10 05:50:47;;;;;;;17.13;16.23;;;24.20;75.50;;;;;;6132905;23;20496;-46
2021/04/10 05:53:14;;;;;;;16.50;15.67;;;24.20;75.50;;;;;;6132611;23;20447;-46
2021/04/10 05:55:41;;;;;;;16.70;16.00;;;24.30;75.70;;;;;;6132422;23;20452;-46
2021/04/10 05:58:07;;;;;;;16.70;15.90;;;24.30;75.60;;;;;;6130811;23;20456;-46
2021/04/10 06:00:34;;;;;;;15.40;14.80;;;24.30;75.60;;;;;;6131081;23;20705;-46
2021/04/10 06:03:01;;;;;;;16.30;15.60;;;24.30;76.30;;;;;;6130403;23;20802;-45
2021/04/10 06:05:29;;;;;;;15.70;15.10;;;24.30;75.50;;;;;;6131485;23;20452;-45
2021/04/10 06:07:55;;;;;;;16.50;15.70;;;24.30;75.50;;;;;;6129342;23;20465;-47
2021/04/10 06:10:22;;;;;;;16.10;15.40;;;24.30;75.50;;;;;;6129211;23;20799;-47
2021/04/10 06:12:49;;;;;;;15.87;15.20;;;24.40;75.60;;;;;;6130873;23;20467;-46
2021/04/10 06:15:17;;;;;;;15.80;15.10;;;24.40;75.60;;;;;;6131347;23;20454;-45
2021/04/10 06:17:44;;;;;;;16.40;15.67;;;24.40;75.60;;;;;;6131155;23;20451;-47
2021/04/10 06:20:15;;;;;;;16.00;15.40;;;24.40;75.60;;;;;;6129933;23;20467;-46
2021/04/10 06:22:41;;;;;;;16.43;15.63;;;24.40;75.50;;;;;;6127352;23;20500;-49
2021/04/10 06:25:08;;;;;;;16.23;15.53;;;24.40;75.50;;;;;;6129917;23;20456;-46
2021/04/10 06:27:35;;;;;;;16.50;15.80;;;24.40;75.50;;;;;;6131272;23;20459;-46
2021/04/10 06:30:03;;;;;;;15.10;14.50;;;24.40;75.50;;;;;;6131549;23;20468;-47
2021/04/10 06:32:30;;;;;;;15.60;15.00;;;24.40;75.60;;;;;;6130103;23;20440;-46
2021/04/10 06:34:56;;;;;;;15.50;14.80;;;24.40;75.60;;;;;;6128294;23;20463;-45
2021/04/10 06:37:24;;;;;;;16.00;15.40;;;24.40;75.60;;;;;;6128546;23;20443;-46
2021/04/10 06:39:50;;;;;;;15.90;15.20;;;24.40;75.60;;;;;;6129948;23;20457;-46
2021/04/10 06:42:17;;;;;;;15.80;15.10;;;24.40;75.60;;;;;;6127899;23;20462;-47
2021/04/10 06:44:44;;;;;;;16.30;15.60;;;24.40;75.60;;;;;;6126378;23;20456;-48
2021/04/10 06:47:11;;;;;;;15.60;15.00;;;24.40;75.60;;;;;;6122335;23;20452;-47
2021/04/10 06:49:39;;;;;;;15.87;15.17;;;24.40;75.60;;;;;;6126387;23;20507;-49
2021/04/10 06:52:07;;;;;;;15.53;14.93;;;24.40;75.60;;;;;;6131386;23;20543;-49
2021/04/10 06:54:38;;;;;;;14.87;14.27;;;24.40;75.50;;;;;;6130152;23;20450;-47
2021/04/10 06:57:13;;;;;;;16.00;15.30;;;24.40;75.60;;;;;;6132615;23;20458;-48
2021/04/10 06:59:49;;;;;;;16.00;15.30;;;24.40;75.60;;;;;;6132087;23;20686;-49
2021/04/10 07:02:16;;;;;;;16.00;15.40;;;24.40;75.60;;;;;;6131701;23;20988;-47
2021/04/10 07:04:43;;;;;;;16.20;15.50;;;24.40;75.60;;;;;;6128723;23;20461;-46
2021/04/10 07:07:10;;;;;;;15.53;14.90;;;24.40;75.50;;;;;;6130919;23;20787;-46
2021/04/10 07:09:38;;;;;;;16.27;15.57;;;24.40;75.60;;;;;;6127872;23;20801;-46
2021/04/10 07:12:06;;;;;;;16.40;15.63;;;24.40;75.60;;;;;;6129548;23;20457;-47
2021/04/10 07:14:32;;;;;;;15.80;15.20;;;24.40;75.60;;;;;;6129496;23;20837;-49
2021/04/10 07:16:59;;;;;;;15.70;15.00;;;24.40;75.60;;;;;;6128940;23;20470;-47
2021/04/10 07:19:27;;;;;;;15.70;15.00;;;24.40;75.60;;;;;;6128403;23;20451;-48
2021/04/10 07:22:06;;;;;;;15.30;14.70;;;24.50;75.70;;;;;;6126875;23;21062;-46
2021/04/10 07:24:39;;;;;;;15.93;15.13;;;24.50;75.70;;;;;;6127576;23;20467;-46
2021/04/10 07:27:07;;;;;;;15.50;14.90;;;24.40;75.60;;;;;;6128664;23;20443;-49
2021/04/10 07:29:35;;;;;;;16.07;14.90;;;24.50;75.80;;;;;;6129448;23;20507;-46
2021/04/10 07:32:23;;;;;;;16.23;15.53;;;24.50;75.80;;;;;;6131277;23;20463;-46
2021/04/10 07:34:50;;;;;;;16.40;15.50;;;24.50;75.90;;;;;;6130994;23;20440;-46
2021/04/10 07:37:34;;;;;;;16.40;15.60;;;24.50;75.90;;;;;;6129328;23;20641;-46
2021/04/10 07:40:03;;;;;;;15.97;14.87;;;24.50;76.10;;;;;;6126729;23;20454;-46
2021/04/10 07:42:30;;;;;;;15.90;15.10;;;24.50;76.30;;;;;;6130978;23;20470;-46
2021/04/10 07:44:57;;;;;;;16.33;15.60;;;24.50;76.30;;;;;;6130927;23;20557;-46
2021/04/10 07:47:37;;;;;;;16.10;15.20;;;24.50;76.70;;;;;;6131035;23;20808;-46
2021/04/10 07:50:21;;;;;;;16.03;15.23;;;24.50;76.80;;;;;;6130974;23;20444;-46
2021/04/10 07:52:48;;;;;;;15.83;15.03;;;24.50;76.80;;;;;;6130914;23;20538;-46
2021/04/10 07:55:39;;;;;;;16.53;15.63;;;24.50;76.90;;;;;;6131034;23;20435;-45
2021/04/10 07:58:26;;;;;;;16.60;15.80;;;24.50;77.00;;;;;;6128158;23;20515;-46
2021/04/10 08:00:54;;;;;;;16.17;15.50;;;24.50;77.00;;;;;;6129438;23;20535;-47
2021/04/10 08:03:22;;;;;;;16.47;15.57;;;24.50;77.10;;;;;;6130560;23;20463;-46
2021/04/10 08:05:49;;;;;;;16.57;15.47;;;24.50;77.20;;;;;;6130726;23;20474;-47
2021/04/10 08:08:19;;;;;;;16.60;15.50;;;24.50;77.20;;;;;;6131229;23;20447;-46
2021/04/10 08:10:47;;;;;;;19.50;16.90;;;24.50;77.30;;;;;;6130059;23;20468;-47
2021/04/10 08:13:13;;;;;;;15.80;14.90;;;24.60;77.30;;;;;;6131788;23;20456;-46
2021/04/10 08:15:40;;;;;;;17.33;16.33;;;24.60;77.30;;;;;;6130825;23;20447;-48
2021/04/10 08:18:23;;;;;;;16.80;15.80;;;24.50;77.30;;;;;;6135162;23;20457;-47
2021/04/10 08:20:50;;;;;;;16.37;15.10;;;24.50;77.40;;;;;;6131128;23;20462;-45
2021/04/10 08:23:19;;;;;;;16.37;15.30;;;24.50;77.60;;;;;;6128262;23;20546;-46
2021/04/10 08:25:46;;;;;;;17.47;15.77;;;24.50;77.60;;;;;;6127982;23;20466;-45
2021/04/10 08:28:15;;;;;;;16.07;14.90;;;24.50;77.60;;;;;;6128324;23;20459;-46
2021/04/10 08:30:42;;;;;;;16.37;15.20;;;24.50;77.60;;;;;;6129321;23;20479;-45
2021/04/10 08:33:09;;;;;;;15.27;14.57;;;24.50;77.70;;;;;;6127374;23;20802;-43
2021/04/10 08:35:37;;;;;;;16.80;15.63;;;24.50;77.80;;;;;;6128220;23;20444;-45
2021/04/10 08:38:05;;;;;;;16.30;15.00;;;24.50;77.80;;;;;;6129113;23;20796;-47
2021/04/10 08:40:34;;;;;;;16.17;15.30;;;24.50;78.00;;;;;;6126465;23;20649;-45
2021/04/10 08:43:03;;;;;;;15.47;14.67;;;24.50;78.00;;;;;;6128615;23;20441;-45
2021/04/10 08:45:31;;;;;;;15.90;14.70;;;24.50;78.10;;;;;;6128575;23;20460;-49
2021/04/10 08:48:03;;;;;;;15.40;14.67;;;24.50;78.10;;;;;;6125665;23;20506;-45
2021/04/10 08:50:31;;;;;;;17.50;15.70;;;24.40;78.10;;;;;;6127544;23;20466;-45
2021/04/10 08:52:58;;;;;;;14.80;14.00;;;24.40;78.20;;;;;;6127738;23;20461;-46
2021/04/10 08:55:25;;;;;;;15.17;14.23;;;24.50;78.40;;;;;;6128943;23;20453;-44
2021/04/10 08:57:52;;;;;;;15.50;14.40;;;24.50;78.40;;;;;;6130079;23;20495;-47
2021/04/10 09:00:22;;;;;;;15.80;14.80;;;24.40;78.30;;;;;;6129739;23;21127;-46
2021/04/10 09:02:54;;;;;;;15.73;14.90;;;24.40;78.40;;;;;;6128248;23;20443;-44
2021/04/10 09:05:21;;;;;;;16.70;15.50;;;24.40;78.50;;;;;;6129178;23;20581;-45
2021/04/10 09:08:07;;;;;;;15.47;14.77;;;24.40;78.70;;;;;;6128829;23;20465;-47
2021/04/10 09:11:01;;;;;;;16.27;15.17;;;24.40;78.90;;;;;;6127381;23;20481;-45
2021/04/10 09:13:43;;;;;;;15.40;14.50;;;24.30;76.50;;;;;;6128453;23;20446;-46
2021/04/10 09:16:29;;;;;;;16.67;15.10;;;24.30;78.60;;;;;;6128362;23;20464;-45
2021/04/10 09:18:57;;;;;;;15.60;14.47;;;24.30;79.10;;;;;;6127631;23;20676;-47
2021/04/10 09:21:26;;;;;;;16.93;15.43;;;24.30;79.20;;;;;;6128729;23;20445;-46
2021/04/10 09:23:53;;;;;;;16.60;15.50;;;24.30;79.40;;;;;;6127002;23;20460;-45
2021/04/10 09:26:21;;;;;;;16.80;15.50;;;24.30;79.50;;;;;;6128199;23;20460;-46
2021/04/10 09:29:18;;;;;;;17.43;16.30;;;24.30;79.60;;;;;;6126735;23;20451;-46
2021/04/10 09:31:49;;;;;;;16.17;15.17;;;24.30;79.70;;;;;;6129282;23;20455;-46
2021/04/10 09:34:51;;;;;;;16.20;15.20;;;24.20;79.50;;;;;;6125695;23;21059;-45
2021/04/10 09:38:01;;;;;;;17.63;16.30;;;24.20;79.60;;;;;;6123307;23;20475;-46
2021/04/10 09:40:49;;;;;;;16.87;15.53;;;24.30;79.70;;;;;;6126368;23;20455;-45
2021/04/10 09:43:21;;;;;;;16.83;15.27;;;24.30;79.80;;;;;;6125195;23;20470;-46
2021/04/10 09:45:50;;;;;;;16.73;15.30;;;24.30;79.70;;;;;;6123250;23;20491;-45
2021/04/10 09:48:22;;;;;;;17.10;15.57;;;24.20;79.70;;;;;;6125114;23;20786;-45
2021/04/10 09:51:10;;;;;;;17.13;16.00;;;24.20;79.70;;;;;;6126409;23;20827;-45
2021/04/10 09:53:37;;;;;;;17.23;15.67;;;24.20;79.70;;;;;;6124073;23;20445;-45
2021/04/10 09:56:06;;;;;;;16.80;15.80;;;24.20;79.70;;;;;;6123783;23;20470;-46
2021/04/10 09:58:41;;;;;;;16.73;15.43;;;24.20;79.70;;;;;;6126204;23;20720;-46
2021/04/10 10:01:14;;;;;;;16.73;15.23;;;24.20;79.70;;;;;;6126990;23;20455;-45
2021/04/10 10:03:42;;;;;;;16.40;15.20;;;24.30;79.90;;;;;;6126236;23;20482;-45
2021/04/10 10:06:28;;;;;;;16.30;15.20;;;24.30;79.80;;;;;;6124080;23;20560;-45
2021/04/10 10:08:54;;;;;;;15.97;15.00;;;24.20;79.80;;;;;;6124208;23;20456;-46
2021/04/10 10:11:22;;;;;;;15.10;14.10;;;24.20;79.90;;;;;;6123194;23;20673;-45
2021/04/10 10:13:49;;;;;;;15.37;14.47;;;24.20;79.90;;;;;;6125340;23;20454;-45
2021/04/10 10:16:24;;;;;;;15.80;14.70;;;24.20;79.90;;;;;;6126289;23;20447;-45
2021/04/10 10:18:52;;;;;;;16.53;15.33;;;24.20;80.00;;;;;;6124854;23;20694;-45
2021/04/10 10:21:21;;;;;;;16.40;15.17;;;24.20;80.00;;;;;;6126996;23;20759;-45
2021/04/10 10:23:49;;;;;;;15.90;15.00;;;24.20;80.00;;;;;;6127840;23;20475;-45
2021/04/10 10:26:18;;;;;;;15.73;14.73;;;24.20;80.00;;;;;;6127401;23;20454;-46
2021/04/10 10:28:46;;;;;;;16.50;15.50;;;24.20;80.00;;;;;;6128371;23;20447;-45
2021/04/10 10:31:14;;;;;;;15.33;14.50;;;24.20;80.00;;;;;;6125679;23;20553;-45
2021/04/10 10:33:41;;;;;;;17.33;16.10;;;24.20;80.00;;;;;;6128216;23;20458;-46
2021/04/10 10:36:10;;;;;;;17.07;15.77;;;24.20;80.00;;;;;;6129733;23;20446;-46
2021/04/10 10:38:38;;;;;;;16.57;15.57;;;24.20;80.00;;;;;;6130586;23;20463;-46
2021/04/10 10:41:06;;;;;;;16.50;15.40;;;24.20;80.10;;;;;;6129676;23;20466;-46
2021/04/10 10:43:34;;;;;;;17.30;15.70;;;24.20;80.00;;;;;;6130686;23;20451;-47
2021/04/10 10:46:03;;;;;;;15.70;14.70;;;24.20;80.10;;;;;;6127776;23;20519;-46
2021/04/10 10:48:32;;;;;;;15.80;14.60;;;24.20;80.10;;;;;;6127891;23;20436;-45
2021/04/10 10:51:07;;;;;;;17.47;15.97;;;24.10;80.00;;;;;;6130740;23;20467;-47
2021/04/10 10:53:36;;;;;;;15.47;14.50;;;24.20;80.20;;;;;;6129120;23;20553;-46
2021/04/10 10:56:18;;;;;;;16.20;15.10;;;24.20;80.20;;;;;;6126593;23;20854;-46
2021/04/10 10:58:47;;;;;;;18.20;16.30;;;24.20;80.30;;;;;;6128400;23;20956;-46
2021/04/10 11:01:39;;;;;;;15.70;14.80;;;24.20;80.40;;;;;;6128577;23;20447;-46
2021/04/10 11:04:10;;;;;;;16.00;15.00;;;24.20;80.50;;;;;;6127023;23;20463;-46
2021/04/10 11:06:42;;;;;;;15.90;15.20;;;24.20;80.50;;;;;;6127275;23;20459;-47
2021/04/10 11:09:16;;;;;;;16.33;14.70;;;24.20;80.50;;;;;;6127866;23;20451;-42
2021/04/10 11:11:46;;;;;;;16.23;15.17;;;24.20;80.60;;;;;;6128479;23;20449;-45
2021/04/10 11:14:18;;;;;;;15.60;14.63;;;24.20;80.70;;;;;;6129581;23;20455;-46
2021/04/10 11:16:47;;;;;;;16.83;15.10;;;24.20;80.80;;;;;;6129244;23;20452;-45
2021/04/10 11:19:25;;;;;;;16.70;15.23;;;24.20;80.70;;;;;;6127632;23;21102;-46
2021/04/10 11:21:52;;;;;;;16.57;15.40;;;24.20;80.80;;;;;;6128228;23;20455;-46
2021/04/10 11:24:20;;;;;;;15.30;14.30;;;24.20;80.80;;;;;;6125592;23;20815;-46
2021/04/10 11:26:52;;;;;;;16.40;15.17;;;24.20;80.80;;;;;;6128331;23;20439;-45
2021/04/10 11:29:21;;;;;;;15.87;14.93;;;24.20;80.80;;;;;;6127818;23;20778;-46
2021/04/10 11:32:20;;;;;;;15.73;14.70;;;24.20;80.80;;;;;;6128658;23;20459;-46
2021/04/10 11:35:05;;;;;;;15.13;14.20;;;24.20;80.90;;;;;;6126593;23;20488;-46
2021/04/10 11:37:47;;;;;;;15.40;14.30;;;24.20;80.90;;;;;;6130497;23;20481;-46
2021/04/10 11:40:31;;;;;;;16.20;15.00;;;24.20;80.90;;;;;;6127663;23;20463;-46
2021/04/10 11:42:59;;;;;;;15.20;14.50;;;24.10;80.90;;;;;;6129846;23;20490;-47
2021/04/10 11:45:29;;;;;;;14.80;13.80;;;24.10;80.90;;;;;;6129995;23;20478;-45
2021/04/10 11:48:16;;;;;;;15.37;14.47;;;24.10;80.90;;;;;;6129468;23;20456;-46
2021/04/10 11:50:48;;;;;;;15.50;14.50;;;24.10;80.90;;;;;;6128346;23;20436;-46
2021/04/10 11:53:18;;;;;;;14.60;13.83;;;24.10;81.10;;;;;;6129049;23;20785;-46
2021/04/10 11:55:46;;;;;;;16.30;15.30;;;24.10;81.10;;;;;;6129110;23;20876;-45
2021/04/10 11:58:13;;;;;;;16.27;15.33;;;24.00;81.00;;;;;;6128732;23;21052;-45
2021/04/10 12:00:40;;;;;;;16.60;15.33;;;24.10;81.20;;;;;;6129484;23;20456;-46
2021/04/10 12:03:09;;;;;;;541.53;484.53;;;24.10;81.30;;;;;;6130645;23;20657;-45
2021/04/10 12:05:42;;;;;;;132.27;118.97;;;24.10;81.40;;;;;;6126933;23;20852;-46
2021/04/10 12:08:13;;;;;;;142.63;128.30;;;24.10;81.50;;;;;;6128376;23;20471;-46
2021/04/10 12:10:44;;;;;;;155.83;139.90;;;24.10;81.60;;;;;;6129917;23;20448;-46
2021/04/10 12:13:11;;;;;;;145.67;131.40;;;24.20;81.70;;;;;;6130702;23;20451;-46
2021/04/10 12:15:40;;;;;;;139.67;125.67;;;24.10;81.60;;;;;;6129165;23;20484;-46
2021/04/10 12:18:11;;;;;;;139.30;125.40;;;24.20;81.80;;;;;;6130028;23;20462;-42
2021/04/10 12:20:41;;;;;;;135.63;121.60;;;24.10;81.70;;;;;;6128850;23;20450;-42
2021/04/10 12:23:08;;;;;;;143.80;128.93;;;24.20;81.90;;;;;;6129459;23;20450;-43
2021/04/10 12:25:37;;;;;;;136.43;122.93;;;24.20;81.90;;;;;;6127676;23;20537;-42
2021/04/10 12:28:04;;;;;;;129.67;116.40;;;24.20;82.00;;;;;;6127185;23;21183;-44
2021/04/10 12:30:33;;;;;;;130.53;117.43;;;24.20;82.00;;;;;;6129611;23;20889;-44
2021/04/10 12:33:01;;;;;;;129.00;115.93;;;24.10;81.90;;;;;;6130570;23;20460;-45
2021/04/10 12:35:29;;;;;;;127.83;115.20;;;24.20;82.10;;;;;;6128511;23;20456;-44
2021/04/10 12:37:56;;;;;;;125.87;112.60;;;24.10;82.00;;;;;;6130416;23;20713;-44
2021/04/10 12:40:23;;;;;;;129.67;113.23;;;24.10;82.00;;;;;;6129279;23;20812;-44
2021/04/10 12:42:52;;;;;;;122.50;110.40;;;24.10;82.10;;;;;;6129260;23;20451;-44